createdAt,value
2023-12-18T00:00:02.776Z,100786.17
2023-12-18T00:03:05.756Z,100789.77
2023-12-18T00:06:07.621Z,100787.54
2023-12-18T00:09:09.344Z,100784.63
2023-12-18T00:12:11.847Z,100782.58
2023-12-18T00:15:13.821Z,100782.73
2023-12-18T00:18:15.602Z,100776.39
2023-12-18T00:21:17.521Z,100775.02
2023-12-18T00:24:19.353Z,100778.11
2023-12-18T00:27:21.076Z,100773.15
2023-12-18T00:30:22.909Z,100769.90
2023-12-18T00:33:24.871Z,100766.80
2023-12-18T00:36:26.676Z,100767.84
2023-12-18T00:39:28.660Z,100776.39
2023-12-18T00:42:30.350Z,100780.34
2023-12-18T00:45:31.996Z,100781.87
2023-12-18T00:48:33.796Z,100783.07
2023-12-18T00:51:35.581Z,100785.63
2023-12-18T00:54:37.427Z,100784.42
2023-12-18T00:57:39.296Z,100783.38
2023-12-18T01:00:41.059Z,100780.29
2023-12-18T01:03:43.109Z,100775.48
2023-12-18T01:06:45.472Z,100775.14
2023-12-18T01:09:47.277Z,100769.84
2023-12-18T01:12:48.806Z,100777.89
2023-12-18T01:15:50.687Z,100779.97
2023-12-18T01:18:52.416Z,100778.11
2023-12-18T01:21:54.222Z,100769.38
2023-12-18T01:24:55.874Z,100777.42
2023-12-18T01:27:57.576Z,100778.46
2023-12-18T01:30:59.429Z,100772.82
2023-12-18T01:34:01.498Z,100762.88
2023-12-18T01:37:03.344Z,100759.97
2023-12-18T01:40:05.507Z,100750.05
2023-12-18T01:43:26.582Z,100744.57
2023-12-18T01:46:28.414Z,100745.27
2023-12-18T01:49:29.998Z,100739.79
2023-12-18T01:52:32.166Z,100736.19
2023-12-18T01:55:33.766Z,100726.25
2023-12-18T01:58:35.337Z,100720.10
2023-12-18T02:01:37.741Z,100706.23
2023-12-18T02:04:39.465Z,100705.55
2023-12-18T02:07:41.555Z,100706.39
2023-12-18T02:10:43.802Z,100709.64
2023-12-18T02:13:45.488Z,100705.02
2023-12-18T02:16:47.048Z,100708.11
2023-12-18T02:19:48.686Z,100706.04
2023-12-18T02:22:50.549Z,100708.78
2023-12-18T02:25:52.086Z,100710.32
2023-12-18T02:28:53.796Z,100704.83
2023-12-18T02:31:55.337Z,100708.93
2023-12-18T02:34:57.120Z,100712.18
2023-12-18T02:37:58.870Z,100710.79
2023-12-18T02:41:00.996Z,100709.92
2023-12-18T02:44:02.662Z,100706.85
2023-12-18T02:47:04.335Z,100711.65
2023-12-18T02:50:06.176Z,100710.79
2023-12-18T02:53:07.830Z,100712.18
2023-12-18T02:56:09.437Z,100716.99
2023-12-18T02:59:11.075Z,100707.06
2023-12-18T03:02:13.421Z,100703.12
2023-12-18T03:05:15.403Z,100695.43
2023-12-18T03:08:17.122Z,100692.00
2023-12-18T03:11:18.927Z,100687.36
2023-12-18T03:14:20.645Z,100688.90
2023-12-18T03:17:22.551Z,100687.70
2023-12-18T03:20:24.623Z,100683.09
2023-12-18T03:23:26.433Z,100677.25
2023-12-18T03:26:28.147Z,100673.99
2023-12-18T03:29:29.697Z,100674.83
2023-12-18T03:32:31.599Z,100678.44
2023-12-18T03:35:33.320Z,100682.20
2023-12-18T03:38:34.881Z,100677.91
2023-12-18T03:41:36.651Z,100675.17
2023-12-18T03:44:38.378Z,100678.95
2023-12-18T03:47:40.117Z,100680.34
2023-12-18T03:50:42.011Z,100675.91
2023-12-18T03:53:43.577Z,100674.21
2023-12-18T03:56:45.222Z,100671.82
2023-12-18T03:59:46.822Z,100672.16
2023-12-18T04:02:48.508Z,100674.05
2023-12-18T04:05:50.198Z,100671.14
2023-12-18T04:08:51.857Z,100674.05
2023-12-18T04:11:53.521Z,100674.39
2023-12-18T04:14:55.204Z,100672.34
2023-12-18T04:17:56.961Z,100678.34
2023-12-18T04:20:58.674Z,100671.32
2023-12-18T04:24:00.303Z,100672.01
2023-12-18T04:27:01.920Z,100671.14
2023-12-18T04:30:03.788Z,100668.56
2023-12-18T04:33:05.804Z,100670.11
2023-12-18T04:36:07.853Z,100674.23
2023-12-18T04:39:11.309Z,100673.36
2023-12-18T04:42:13.104Z,100670.80
2023-12-18T04:45:14.770Z,100675.76
2023-12-18T04:48:16.531Z,100673.18
2023-12-18T04:51:18.984Z,100683.29
2023-12-18T04:54:20.690Z,100685.69
2023-12-18T04:57:22.437Z,100686.55
2023-12-18T05:00:24.259Z,100692.20
2023-12-18T05:03:25.997Z,100692.89
2023-12-18T05:06:29.155Z,100687.92
2023-12-18T05:09:31.248Z,100685.53
2023-12-18T05:12:32.950Z,100692.70
2023-12-18T05:15:34.684Z,100691.33
2023-12-18T05:18:36.579Z,100695.41
2023-12-18T05:21:38.430Z,100696.42
2023-12-18T05:24:40.585Z,100693.52
2023-12-18T05:27:42.472Z,100692.31
2023-12-18T05:30:44.322Z,100690.26
2023-12-18T05:33:46.305Z,100689.77
2023-12-18T05:36:48.213Z,100693.52
2023-12-18T05:39:50.056Z,100696.60
2023-12-18T05:42:51.858Z,100697.45
2023-12-18T05:45:53.554Z,100698.83
2023-12-18T05:48:55.419Z,100693.17
2023-12-18T05:51:57.050Z,100690.59
2023-12-18T05:54:58.737Z,100692.14
2023-12-18T05:58:00.285Z,100694.70
2023-12-18T06:01:03.067Z,100696.75
2023-12-18T06:04:04.996Z,100699.31
2023-12-18T06:07:06.670Z,100698.29
2023-12-18T06:10:09.274Z,100698.80
2023-12-18T06:13:11.045Z,100697.09
2023-12-18T06:16:12.690Z,100696.73
2023-12-18T06:19:14.419Z,100699.65
2023-12-18T06:22:16.021Z,100706.50
2023-12-18T06:25:17.957Z,100707.21
2023-12-18T06:28:19.500Z,100707.57
2023-12-18T06:31:21.291Z,100708.92
2023-12-18T06:34:26.164Z,100716.66
2023-12-18T06:37:30.113Z,100718.05
2023-12-18T06:40:33.002Z,100721.13
2023-12-18T06:43:34.565Z,100723.02
2023-12-18T06:46:36.224Z,100728.83
2023-12-18T06:49:37.930Z,100727.45
2023-12-18T06:52:39.812Z,100723.50
2023-12-18T06:55:41.723Z,100717.31
2023-12-18T06:58:43.425Z,100713.34
2023-12-18T07:01:45.083Z,100712.95
2023-12-18T07:04:46.918Z,100713.09
2023-12-18T07:07:48.794Z,100713.03
2023-12-18T07:10:50.344Z,100716.63
2023-12-18T07:13:52.067Z,100713.85
2023-12-18T07:16:53.788Z,100712.84
2023-12-18T07:19:55.389Z,100706.55
2023-12-18T07:22:57.001Z,100705.55
2023-12-18T07:25:58.664Z,100708.22
2023-12-18T07:29:00.181Z,100704.17
2023-12-18T07:32:02.123Z,100704.09
2023-12-18T07:35:04.604Z,100703.69
2023-12-18T07:38:06.302Z,100708.86
2023-12-18T07:41:08.018Z,100711.15
2023-12-18T07:44:09.686Z,100712.58
2023-12-18T07:47:11.339Z,100708.31
2023-12-18T07:50:12.996Z,100706.27
2023-12-18T07:53:14.605Z,100711.89
2023-12-18T07:56:16.553Z,100705.84
2023-12-18T07:59:18.213Z,100706.42
2023-12-18T08:02:19.765Z,100701.50
2023-12-18T08:05:21.482Z,100697.34
2023-12-18T08:08:23.184Z,100695.21
2023-12-18T08:11:24.756Z,100699.77
2023-12-18T08:14:26.381Z,100703.28
2023-12-18T08:17:28.231Z,100695.27
2023-12-18T08:20:30.113Z,100690.16
2023-12-18T08:23:31.747Z,100687.45
2023-12-18T08:26:33.329Z,100692.64
2023-12-18T08:29:34.885Z,100689.36
2023-12-18T08:32:36.914Z,100685.35
2023-12-18T08:35:38.644Z,100683.95
2023-12-18T08:38:40.246Z,100680.73
2023-12-18T08:41:42.009Z,100673.52
2023-12-18T08:44:43.900Z,100669.54
2023-12-18T08:47:45.734Z,100666.08
2023-12-18T08:50:47.565Z,100674.70
2023-12-18T08:53:49.361Z,100681.15
2023-12-18T08:56:51.119Z,100675.48
2023-12-18T08:59:53.124Z,100670.45
2023-12-18T09:02:54.845Z,100661.73
2023-12-18T09:05:56.553Z,100662.31
2023-12-18T09:08:58.432Z,100664.84
2023-12-18T09:12:00.166Z,100664.08
2023-12-18T09:15:01.811Z,100666.53
2023-12-18T09:18:03.957Z,100666.74
2023-12-18T09:21:05.636Z,100662.34
2023-12-18T09:24:07.524Z,100657.76
2023-12-18T09:27:09.192Z,100656.13
2023-12-18T09:30:11.939Z,100649.92
2023-12-18T09:33:13.875Z,100646.89
2023-12-18T09:36:16.262Z,100637.60
2023-12-18T09:39:18.173Z,100629.90
2023-12-18T09:42:21.487Z,100615.58
2023-12-18T09:45:24.519Z,100617.64
2023-12-18T09:48:26.453Z,100612.27
2023-12-18T09:51:28.378Z,100606.67
2023-12-18T09:54:30.445Z,100604.05
2023-12-18T09:57:32.298Z,100604.83
2023-12-18T10:00:34.448Z,100602.81
2023-12-18T10:03:36.354Z,100602.52
2023-12-18T10:06:38.125Z,100598.45
2023-12-18T10:09:40.330Z,100601.10
2023-12-18T10:12:42.752Z,100592.92
2023-12-18T10:15:44.736Z,100582.57
2023-12-18T10:18:46.526Z,100588.49
2023-12-18T10:21:49.477Z,100582.85
2023-12-18T10:24:51.177Z,100583.74
2023-12-18T10:27:56.155Z,100585.05
2023-12-18T10:30:58.154Z,100584.25
2023-12-18T10:34:00.071Z,100592.13
2023-12-18T10:37:01.961Z,100589.73
2023-12-18T10:40:04.208Z,100573.93
2023-12-18T10:43:25.044Z,100573.02
2023-12-18T10:46:27.690Z,100564.02
2023-12-18T10:49:29.521Z,100566.79
2023-12-18T10:52:32.189Z,100563.20
2023-12-18T10:55:34.181Z,100550.96
2023-12-18T10:58:36.015Z,100544.23
2023-12-18T11:01:38.060Z,100527.40
2023-12-18T11:04:39.766Z,100525.60
2023-12-18T11:07:42.169Z,100522.26
2023-12-18T11:10:44.101Z,100521.55
2023-12-18T11:13:46.459Z,100515.85
2023-12-18T11:17:08.422Z,100504.29
2023-12-18T11:20:24.315Z,100501.73
2023-12-18T11:23:27.013Z,100501.41
2023-12-18T11:26:30.104Z,100504.17
2023-12-18T11:29:42.622Z,100516.95
2023-12-18T11:32:47.777Z,100524.36
2023-12-18T11:35:50.265Z,100531.11
2023-12-18T11:38:52.016Z,100521.41
2023-12-18T11:41:53.769Z,100505.45
2023-12-18T11:44:55.482Z,100509.67
2023-12-18T11:47:58.750Z,100517.16
2023-12-18T11:51:01.632Z,100519.31
2023-12-18T11:54:03.627Z,100519.98
2023-12-18T11:57:15.400Z,100523.41
2023-12-18T12:00:17.759Z,100515.61
2023-12-18T12:03:20.293Z,100510.21
2023-12-18T12:06:25.406Z,100508.02
2023-12-18T12:09:27.362Z,100505.98
2023-12-18T12:12:29.142Z,100507.02
2023-12-18T12:15:30.930Z,100501.81
2023-12-18T12:18:35.834Z,100499.96
2023-12-18T12:21:45.297Z,100503.50
2023-12-18T12:24:49.475Z,100497.63
2023-12-18T12:27:51.884Z,100493.10
2023-12-18T12:30:54.145Z,100488.76
2023-12-18T12:33:56.293Z,100478.98
2023-12-18T12:37:02.058Z,100475.91
2023-12-18T12:40:05.519Z,100476.61
2023-12-18T12:43:07.691Z,100487.60
2023-12-18T12:46:09.599Z,100497.20
2023-12-18T12:49:12.276Z,100502.66
2023-12-18T12:52:14.973Z,100504.45
2023-12-18T12:55:16.771Z,100506.11
2023-12-18T12:58:18.465Z,100507.75
2023-12-18T13:01:20.232Z,100500.00
2023-12-18T13:04:23.174Z,100498.55
2023-12-18T13:07:25.090Z,100487.59
2023-12-18T13:10:27.261Z,100484.92
2023-12-18T13:13:29.508Z,100483.73
2023-12-18T13:16:31.180Z,100486.73
2023-12-18T13:19:34.644Z,100486.82
2023-12-18T13:22:36.426Z,100489.32
2023-12-18T13:25:38.099Z,100491.18
2023-12-18T13:28:40.560Z,100494.36
2023-12-18T13:31:42.355Z,100495.56
2023-12-18T13:34:44.153Z,100495.15
2023-12-18T13:37:46.127Z,100495.80
2023-12-18T13:40:47.927Z,100500.77
2023-12-18T13:43:49.638Z,100497.40
2023-12-18T13:46:51.667Z,100500.30
2023-12-18T13:49:53.690Z,100507.27
2023-12-18T13:52:55.469Z,100515.39
2023-12-18T13:55:57.121Z,100516.20
2023-12-18T13:59:00.917Z,100513.65
2023-12-18T14:02:03.504Z,100512.80
2023-12-18T14:05:16.932Z,100513.00
2023-12-18T14:08:18.699Z,100518.33
2023-12-18T14:11:20.460Z,100521.23
2023-12-18T14:14:22.173Z,100527.09
2023-12-18T14:17:23.888Z,100534.48
2023-12-18T14:20:25.634Z,100540.68
2023-12-18T14:23:27.247Z,100543.29
2023-12-18T14:26:28.954Z,100539.21
2023-12-18T14:29:30.522Z,100542.54
2023-12-18T14:32:32.311Z,100542.09
2023-12-18T14:35:34.432Z,100541.31
2023-12-18T14:38:36.126Z,100544.98
2023-12-18T14:41:37.886Z,100543.20
2023-12-18T14:44:40.461Z,100537.91
2023-12-18T14:47:42.444Z,100533.61
2023-12-18T14:50:44.098Z,100534.79
2023-12-18T14:53:45.831Z,100533.35
2023-12-18T14:56:47.491Z,100523.96
2023-12-18T14:59:49.248Z,100519.15
2023-12-18T15:02:50.890Z,100514.49
2023-12-18T15:05:53.021Z,100513.86
2023-12-18T15:08:54.767Z,100510.54
2023-12-18T15:11:56.728Z,100504.95
2023-12-18T15:14:58.461Z,100504.23
2023-12-18T15:18:00.190Z,100517.88
2023-12-18T15:21:03.720Z,100514.05
2023-12-18T15:24:09.647Z,100515.54
2023-12-18T15:27:12.578Z,100519.46
2023-12-18T15:30:15.150Z,100518.49
2023-12-18T15:33:18.095Z,100513.98
2023-12-18T15:36:20.373Z,100515.23
2023-12-18T15:39:24.205Z,100515.58
2023-12-18T15:42:26.140Z,100525.61
2023-12-18T15:45:27.832Z,100525.23
2023-12-18T15:48:29.619Z,100533.00
2023-12-18T15:51:31.387Z,100533.77
2023-12-18T15:54:33.074Z,100535.16
2023-12-18T15:57:36.183Z,100540.33
2023-12-18T16:00:38.132Z,100536.25
2023-12-18T16:03:40.409Z,100537.09
2023-12-18T16:06:42.237Z,100542.73
2023-12-18T16:09:43.962Z,100539.50
2023-12-18T16:12:46.089Z,100542.59
2023-12-18T16:15:47.987Z,100547.27
2023-12-18T16:18:50.025Z,100548.31
2023-12-18T16:21:51.850Z,100544.36
2023-12-18T16:24:53.931Z,100538.67
2023-12-18T16:27:55.691Z,100536.87
2023-12-18T16:30:58.242Z,100538.70
2023-12-18T16:34:00.128Z,100541.52
2023-12-18T16:37:03.472Z,100540.62
2023-12-18T16:40:05.840Z,100539.01
2023-12-18T16:43:07.567Z,100540.67
2023-12-18T16:46:09.363Z,100543.83
2023-12-18T16:49:11.152Z,100540.88
2023-12-18T16:52:13.038Z,100538.86
2023-12-18T16:55:14.813Z,100531.77
2023-12-18T16:58:16.471Z,100532.23
2023-12-18T17:01:18.403Z,100528.88
2023-12-18T17:04:20.132Z,100524.19
2023-12-18T17:07:22.326Z,100517.64
2023-12-18T17:10:24.222Z,100519.33
2023-12-18T17:13:26.206Z,100519.66
2023-12-18T17:16:27.900Z,100519.52
2023-12-18T17:19:29.685Z,100516.60
2023-12-18T17:22:31.336Z,100511.52
2023-12-18T17:25:33.123Z,100508.60
2023-12-18T17:28:34.708Z,100513.18
2023-12-18T17:31:36.837Z,100509.85
2023-12-18T17:34:38.603Z,100499.39
2023-12-18T17:37:40.398Z,100495.73
2023-12-18T17:40:41.956Z,100490.20
2023-12-18T17:43:43.585Z,100493.38
2023-12-18T17:46:45.348Z,100495.38
2023-12-18T17:49:47.268Z,100497.02
2023-12-18T17:52:49.941Z,100506.77
2023-12-18T17:55:51.558Z,100502.11
2023-12-18T17:58:53.426Z,100506.95
2023-12-18T18:01:55.031Z,100501.20
2023-12-18T18:04:56.634Z,100502.05
2023-12-18T18:07:58.204Z,100501.90
2023-12-18T18:11:06.535Z,100501.55
2023-12-18T18:14:08.095Z,100501.75
2023-12-18T18:17:09.700Z,100494.34
2023-12-18T18:20:11.767Z,100494.41
2023-12-18T18:23:13.465Z,100495.19
2023-12-18T18:26:15.079Z,100495.91
2023-12-18T18:29:16.756Z,100493.38
2023-12-18T18:32:18.462Z,100495.30
2023-12-18T18:35:20.234Z,100490.63
2023-12-18T18:38:24.809Z,100490.14
2023-12-18T18:41:26.397Z,100491.02
2023-12-18T18:44:28.134Z,100493.72
2023-12-18T18:47:29.820Z,100491.83
2023-12-18T18:50:31.426Z,100490.35
2023-12-18T18:53:33.159Z,100490.11
2023-12-18T18:56:34.756Z,100488.79
2023-12-18T18:59:36.338Z,100486.23
2023-12-18T19:02:37.896Z,100481.11
2023-12-18T19:05:39.608Z,100481.34
2023-12-18T19:08:41.636Z,100478.76
2023-12-18T19:11:43.306Z,100479.78
2023-12-18T19:14:44.932Z,100485.97
2023-12-18T19:17:47.008Z,100485.20
2023-12-18T19:20:50.458Z,100487.48
2023-12-18T19:23:52.471Z,100484.45
2023-12-18T19:26:54.099Z,100481.86
2023-12-18T19:29:55.716Z,100479.86
2023-12-18T19:32:57.516Z,100482.88
2023-12-18T19:35:59.148Z,100482.09
2023-12-18T19:39:00.684Z,100481.30
2023-12-18T19:42:02.323Z,100479.52
2023-12-18T19:45:03.973Z,100472.71
2023-12-18T19:48:05.847Z,100471.90
2023-12-18T19:51:07.472Z,100466.97
2023-12-18T19:54:09.347Z,100463.08
2023-12-18T19:57:10.921Z,100458.34
2023-12-18T20:00:12.841Z,100449.92
2023-12-18T20:03:14.728Z,100446.55
2023-12-18T20:06:16.725Z,100433.04
2023-12-18T20:09:19.005Z,100430.33
2023-12-18T20:12:20.791Z,100443.71
2023-12-18T20:15:22.514Z,100441.77
2023-12-18T20:18:24.373Z,100436.86
2023-12-18T20:21:26.149Z,100431.40
2023-12-18T20:24:28.220Z,100425.17
2023-12-18T20:27:29.894Z,100417.23
2023-12-18T20:30:31.604Z,100418.03
2023-12-18T20:33:36.291Z,100418.23
2023-12-18T20:36:38.034Z,100416.02
2023-12-18T20:39:39.958Z,100416.55
2023-12-18T20:42:41.933Z,100415.20
2023-12-18T20:45:43.744Z,100415.38
2023-12-18T20:48:45.530Z,100414.00
2023-12-18T20:51:47.263Z,100408.84
2023-12-18T20:54:49.428Z,100406.18
2023-12-18T20:57:51.110Z,100401.91
2023-12-18T21:00:52.906Z,100402.02
2023-12-18T21:03:54.652Z,100402.14
2023-12-18T21:06:56.774Z,100402.56
2023-12-18T21:09:59.685Z,100397.33
2023-12-18T21:13:02.205Z,100401.20
2023-12-18T21:16:04.169Z,100398.48
2023-12-18T21:19:05.925Z,100397.90
2023-12-18T21:22:07.670Z,100398.34
2023-12-18T21:25:10.984Z,100392.27
2023-12-18T21:28:12.604Z,100390.50
2023-12-18T21:31:15.048Z,100386.67
2023-12-18T21:34:16.817Z,100377.98
2023-12-18T21:37:18.528Z,100370.55
2023-12-18T21:40:21.031Z,100375.63
2023-12-18T21:43:23.393Z,100370.77
2023-12-18T21:46:25.776Z,100367.47
2023-12-18T21:49:27.772Z,100368.00
2023-12-18T21:52:29.674Z,100365.15
2023-12-18T21:55:33.043Z,100363.36
2023-12-18T21:58:34.690Z,100365.83
2023-12-18T22:01:38.696Z,100363.93
2023-12-18T22:04:40.858Z,100365.88
2023-12-18T22:07:42.633Z,100363.19
2023-12-18T22:10:44.413Z,100359.66
2023-12-18T22:13:46.110Z,100357.03
2023-12-18T22:16:48.132Z,100352.08
2023-12-18T22:19:49.957Z,100350.88
2023-12-18T22:22:51.719Z,100350.75
2023-12-18T22:25:53.704Z,100345.20
2023-12-18T22:28:55.249Z,100339.20
2023-12-18T22:31:56.882Z,100338.67
2023-12-18T22:34:58.788Z,100338.27
2023-12-18T22:38:00.482Z,100334.92
2023-12-18T22:41:02.413Z,100335.50
2023-12-18T22:44:04.026Z,100336.13
2023-12-18T22:47:05.761Z,100328.16
2023-12-18T22:50:07.656Z,100328.59
2023-12-18T22:53:09.321Z,100331.64
2023-12-18T22:56:11.169Z,100326.62
2023-12-18T22:59:12.822Z,100326.59
2023-12-18T23:02:14.458Z,100324.04
2023-12-18T23:05:16.367Z,100321.64
2023-12-18T23:08:17.909Z,100321.55
2023-12-18T23:11:21.300Z,100311.69
2023-12-18T23:14:22.885Z,100306.27
2023-12-18T23:17:24.529Z,100305.66
2023-12-18T23:20:26.118Z,100303.15
2023-12-18T23:23:27.762Z,100303.92
2023-12-18T23:26:29.960Z,100301.83
2023-12-18T23:29:31.540Z,100299.70
2023-12-18T23:32:33.573Z,100296.52
2023-12-18T23:35:35.223Z,100292.35
2023-12-18T23:38:37.094Z,100283.05
2023-12-18T23:41:38.967Z,100280.41
2023-12-18T23:44:40.558Z,100280.66
2023-12-18T23:47:42.142Z,100282.10
2023-12-18T23:50:46.952Z,100280.79
2023-12-18T23:53:48.623Z,100269.22
2023-12-18T23:56:50.566Z,100272.69
2023-12-18T23:59:52.569Z,100267.27
